sensor_id;sensor_type;location;lat;lon;timestamp;P1;durP1;ratioP1;P2;durP2;ratioP2
5077;SDS011;2557;51.390;7.494;2023-03-14T00:00:38;3.47;;;2.03;;
5077;SDS011;2557;51.390;7.494;2023-03-14T00:03:04;5.43;;;2.37;;
5077;SDS011;2557;51.390;7.494;2023-03-14T00:05:30;7.20;;;2.40;;
5077;SDS011;2557;51.390;7.494;2023-03-14T00:07:56;2.63;;;2.13;;
5077;SDS011;2557;51.390;7.494;2023-03-14T00:10:22;4.50;;;1.87;;
5077;SDS011;2557;51.390;7.494;2023-03-14T00:12:48;2.87;;;1.90;;
5077;SDS011;2557;51.390;7.494;2023-03-14T00:15:14;3.67;;;2.23;;
5077;SDS011;2557;51.390;7.494;2023-03-14T00:17:42;4.27;;;2.30;;
5077;SDS011;2557;51.390;7.494;2023-03-14T00:20:09;6.30;;;2.03;;
5077;SDS011;2557;51.390;7.494;2023-03-14T00:22:36;4.93;;;2.13;;
5077;SDS011;2557;51.390;7.494;2023-03-14T00:25:03;3.80;;;2.50;;
5077;SDS011;2557;51.390;7.494;2023-03-14T00:27:29;5.30;;;1.97;;
5077;SDS011;2557;51.390;7.494;2023-03-14T00:29:55;4.30;;;1.70;;
5077;SDS011;2557;51.390;7.494;2023-03-14T00:32:21;3.93;;;2.20;;
5077;SDS011;2557;51.390;7.494;2023-03-14T00:34:47;5.27;;;2.80;;
5077;SDS011;2557;51.390;7.494;2023-03-14T00:37:13;8.77;;;2.20;;
5077;SDS011;2557;51.390;7.494;2023-03-14T00:39:39;9.10;;;2.40;;
5077;SDS011;2557;51.390;7.494;2023-03-14T00:42:05;5.73;;;2.63;;
5077;SDS011;2557;51.390;7.494;2023-03-14T00:44:31;4.30;;;2.00;;
5077;SDS011;2557;51.390;7.494;2023-03-14T00:46:59;4.53;;;2.77;;
5077;SDS011;2557;51.390;7.494;2023-03-14T00:49:25;4.80;;;2.10;;
5077;SDS011;2557;51.390;7.494;2023-03-14T00:51:52;9.20;;;2.40;;
5077;SDS011;2557;51.390;7.494;2023-03-14T00:54:18;7.80;;;2.17;;
5077;SDS011;2557;51.390;7.494;2023-03-14T00:56:44;2.47;;;1.93;;
5077;SDS011;2557;51.390;7.494;2023-03-14T00:59:10;7.33;;;2.13;;
5077;SDS011;2557;51.390;7.494;2023-03-14T01:01:37;11.03;;;2.30;;
5077;SDS011;2557;51.390;7.494;2023-03-14T01:04:03;3.27;;;1.80;;
5077;SDS011;2557;51.390;7.494;2023-03-14T01:06:29;2.97;;;2.10;;
5077;SDS011;2557;51.390;7.494;2023-03-14T01:08:56;3.53;;;1.80;;
5077;SDS011;2557;51.390;7.494;2023-03-14T01:11:23;3.73;;;2.00;;
5077;SDS011;2557;51.390;7.494;2023-03-14T01:13:50;5.33;;;1.90;;
5077;SDS011;2557;51.390;7.494;2023-03-14T01:16:16;5.97;;;2.30;;
5077;SDS011;2557;51.390;7.494;2023-03-14T01:18:42;6.13;;;2.20;;
5077;SDS011;2557;51.390;7.494;2023-03-14T01:21:10;3.40;;;2.10;;
5077;SDS011;2557;51.390;7.494;2023-03-14T01:23:36;3.50;;;1.80;;
5077;SDS011;2557;51.390;7.494;2023-03-14T01:26:02;6.50;;;2.37;;
5077;SDS011;2557;51.390;7.494;2023-03-14T01:28:28;5.63;;;2.50;;
5077;SDS011;2557;51.390;7.494;2023-03-14T01:30:54;4.83;;;2.87;;
5077;SDS011;2557;51.390;7.494;2023-03-14T01:33:20;11.60;;;2.83;;
5077;SDS011;2557;51.390;7.494;2023-03-14T01:35:49;8.30;;;2.27;;
5077;SDS011;2557;51.390;7.494;2023-03-14T01:38:15;2.83;;;2.20;;
5077;SDS011;2557;51.390;7.494;2023-03-14T01:40:41;3.93;;;1.87;;
5077;SDS011;2557;51.390;7.494;2023-03-14T01:43:15;5.20;;;1.70;;
5077;SDS011;2557;51.390;7.494;2023-03-14T01:48:24;2.47;;;1.60;;
5077;SDS011;2557;51.390;7.494;2023-03-14T01:50:51;4.50;;;2.07;;
5077;SDS011;2557;51.390;7.494;2023-03-14T01:53:17;3.40;;;1.80;;
5077;SDS011;2557;51.390;7.494;2023-03-14T01:55:46;2.73;;;1.50;;
5077;SDS011;2557;51.390;7.494;2023-03-14T01:58:12;5.00;;;2.33;;
5077;SDS011;2557;51.390;7.494;2023-03-14T02:00:38;2.77;;;1.60;;
5077;SDS011;2557;51.390;7.494;2023-03-14T02:03:05;3.67;;;2.07;;
5077;SDS011;2557;51.390;7.494;2023-03-14T02:05:32;2.47;;;2.07;;
5077;SDS011;2557;51.390;7.494;2023-03-14T02:08:00;3.37;;;1.60;;
5077;SDS011;2557;51.390;7.494;2023-03-14T02:10:27;4.60;;;1.60;;
5077;SDS011;2557;51.390;7.494;2023-03-14T02:12:54;7.70;;;2.13;;
5077;SDS011;2557;51.390;7.494;2023-03-14T02:15:21;5.73;;;1.80;;
5077;SDS011;2557;51.390;7.494;2023-03-14T02:17:47;6.37;;;1.83;;
5077;SDS011;2557;51.390;7.494;2023-03-14T02:20:15;4.03;;;2.03;;
5077;SDS011;2557;51.390;7.494;2023-03-14T02:22:45;2.70;;;1.80;;
5077;SDS011;2557;51.390;7.494;2023-03-14T02:25:17;5.60;;;1.77;;
5077;SDS011;2557;51.390;7.494;2023-03-14T02:27:46;2.80;;;1.90;;
5077;SDS011;2557;51.390;7.494;2023-03-14T02:30:15;2.57;;;2.07;;
5077;SDS011;2557;51.390;7.494;2023-03-14T02:32:43;4.83;;;3.00;;
5077;SDS011;2557;51.390;7.494;2023-03-14T02:35:11;8.70;;;3.40;;
5077;SDS011;2557;51.390;7.494;2023-03-14T02:40:22;2.17;;;1.53;;
5077;SDS011;2557;51.390;7.494;2023-03-14T02:42:48;8.17;;;3.17;;
5077;SDS011;2557;51.390;7.494;2023-03-14T02:47:44;6.33;;;2.40;;
5077;SDS011;2557;51.390;7.494;2023-03-14T02:50:13;5.50;;;2.20;;
5077;SDS011;2557;51.390;7.494;2023-03-14T02:52:40;7.37;;;2.00;;
5077;SDS011;2557;51.390;7.494;2023-03-14T02:55:06;7.27;;;2.63;;
5077;SDS011;2557;51.390;7.494;2023-03-14T02:57:32;2.63;;;2.00;;
5077;SDS011;2557;51.390;7.494;2023-03-14T02:59:59;5.33;;;2.30;;
5077;SDS011;2557;51.390;7.494;2023-03-14T03:02:25;3.80;;;1.83;;
5077;SDS011;2557;51.390;7.494;2023-03-14T03:04:51;4.30;;;1.50;;
5077;SDS011;2557;51.390;7.494;2023-03-14T03:07:17;2.57;;;1.53;;
5077;SDS011;2557;51.390;7.494;2023-03-14T03:09:44;1.50;;;1.40;;
5077;SDS011;2557;51.390;7.494;2023-03-14T03:12:10;4.70;;;2.20;;
5077;SDS011;2557;51.390;7.494;2023-03-14T03:14:36;3.63;;;1.90;;
5077;SDS011;2557;51.390;7.494;2023-03-14T03:17:03;2.70;;;1.73;;
5077;SDS011;2557;51.390;7.494;2023-03-14T03:19:29;2.40;;;2.00;;
5077;SDS011;2557;51.390;7.494;2023-03-14T03:21:55;2.50;;;1.73;;
5077;SDS011;2557;51.390;7.494;2023-03-14T03:24:21;2.47;;;1.73;;
5077;SDS011;2557;51.390;7.494;2023-03-14T03:26:47;2.50;;;1.83;;
5077;SDS011;2557;51.390;7.494;2023-03-14T03:29:13;5.50;;;2.20;;
5077;SDS011;2557;51.390;7.494;2023-03-14T03:31:39;3.70;;;2.00;;
5077;SDS011;2557;51.390;7.494;2023-03-14T03:34:05;5.87;;;2.27;;
5077;SDS011;2557;51.390;7.494;2023-03-14T03:36:31;3.50;;;2.93;;
5077;SDS011;2557;51.390;7.494;2023-03-14T03:38:57;2.70;;;1.97;;
5077;SDS011;2557;51.390;7.494;2023-03-14T03:41:23;9.27;;;2.93;;
5077;SDS011;2557;51.390;7.494;2023-03-14T03:43:49;6.10;;;2.30;;
5077;SDS011;2557;51.390;7.494;2023-03-14T03:46:15;5.43;;;2.50;;
5077;SDS011;2557;51.390;7.494;2023-03-14T03:48:41;7.50;;;2.03;;
5077;SDS011;2557;51.390;7.494;2023-03-14T03:51:09;4.13;;;1.87;;
5077;SDS011;2557;51.390;7.494;2023-03-14T03:53:36;7.87;;;1.90;;
5077;SDS011;2557;51.390;7.494;2023-03-14T03:56:02;6.60;;;3.50;;
5077;SDS011;2557;51.390;7.494;2023-03-14T03:58:28;3.00;;;1.90;;
5077;SDS011;2557;51.390;7.494;2023-03-14T04:00:54;5.23;;;1.60;;
5077;SDS011;2557;51.390;7.494;2023-03-14T04:03:20;5.80;;;2.20;;
5077;SDS011;2557;51.390;7.494;2023-03-14T04:05:46;2.77;;;1.87;;
5077;SDS011;2557;51.390;7.494;2023-03-14T04:08:12;2.50;;;2.30;;
5077;SDS011;2557;51.390;7.494;2023-03-14T04:10:38;5.50;;;2.30;;
5077;SDS011;2557;51.390;7.494;2023-03-14T04:13:04;3.70;;;2.00;;
5077;SDS011;2557;51.390;7.494;2023-03-14T04:15:30;5.83;;;2.97;;
5077;SDS011;2557;51.390;7.494;2023-03-14T04:17:57;5.07;;;2.10;;
5077;SDS011;2557;51.390;7.494;2023-03-14T04:20:23;5.43;;;1.97;;
5077;SDS011;2557;51.390;7.494;2023-03-14T04:22:49;4.70;;;1.80;;
5077;SDS011;2557;51.390;7.494;2023-03-14T04:25:15;2.33;;;1.70;;
5077;SDS011;2557;51.390;7.494;2023-03-14T04:27:42;2.93;;;1.60;;
5077;SDS011;2557;51.390;7.494;2023-03-14T04:30:08;11.13;;;2.47;;
5077;SDS011;2557;51.390;7.494;2023-03-14T04:32:34;2.40;;;1.70;;
5077;SDS011;2557;51.390;7.494;2023-03-14T04:35:00;5.17;;;2.07;;
5077;SDS011;2557;51.390;7.494;2023-03-14T04:37:26;3.50;;;2.27;;
5077;SDS011;2557;51.390;7.494;2023-03-14T04:39:52;5.23;;;2.37;;
5077;SDS011;2557;51.390;7.494;2023-03-14T04:42:18;3.17;;;2.03;;
5077;SDS011;2557;51.390;7.494;2023-03-14T04:44:44;7.67;;;2.13;;
5077;SDS011;2557;51.390;7.494;2023-03-14T04:47:11;4.43;;;2.43;;
5077;SDS011;2557;51.390;7.494;2023-03-14T04:49:37;5.33;;;2.37;;
5077;SDS011;2557;51.390;7.494;2023-03-14T04:52:03;4.60;;;2.57;;
5077;SDS011;2557;51.390;7.494;2023-03-14T04:54:29;3.80;;;2.90;;
5077;SDS011;2557;51.390;7.494;2023-03-14T04:56:55;3.77;;;3.07;;
5077;SDS011;2557;51.390;7.494;2023-03-14T04:59:21;5.10;;;2.60;;
5077;SDS011;2557;51.390;7.494;2023-03-14T05:01:47;4.83;;;2.93;;
5077;SDS011;2557;51.390;7.494;2023-03-14T05:04:14;5.77;;;2.80;;
5077;SDS011;2557;51.390;7.494;2023-03-14T05:06:40;8.00;;;2.90;;
5077;SDS011;2557;51.390;7.494;2023-03-14T05:09:07;3.83;;;3.00;;
5077;SDS011;2557;51.390;7.494;2023-03-14T05:11:33;2.33;;;1.97;;
5077;SDS011;2557;51.390;7.494;2023-03-14T05:13:59;12.27;;;3.10;;
5077;SDS011;2557;51.390;7.494;2023-03-14T05:16:25;10.43;;;3.40;;
5077;SDS011;2557;51.390;7.494;2023-03-14T05:18:51;6.10;;;1.90;;
5077;SDS011;2557;51.390;7.494;2023-03-14T05:21:17;10.33;;;2.90;;
5077;SDS011;2557;51.390;7.494;2023-03-14T05:23:43;3.00;;;2.30;;
5077;SDS011;2557;51.390;7.494;2023-03-14T05:26:09;6.53;;;2.47;;
5077;SDS011;2557;51.390;7.494;2023-03-14T05:28:35;8.17;;;2.53;;
5077;SDS011;2557;51.390;7.494;2023-03-14T05:31:01;9.37;;;2.20;;
5077;SDS011;2557;51.390;7.494;2023-03-14T05:33:31;8.70;;;2.77;;
5077;SDS011;2557;51.390;7.494;2023-03-14T05:35:57;3.73;;;2.47;;
5077;SDS011;2557;51.390;7.494;2023-03-14T05:38:23;3.40;;;2.03;;
5077;SDS011;2557;51.390;7.494;2023-03-14T05:40:49;3.87;;;1.70;;
5077;SDS011;2557;51.390;7.494;2023-03-14T05:43:15;5.80;;;2.27;;
5077;SDS011;2557;51.390;7.494;2023-03-14T05:45:41;5.40;;;1.90;;
5077;SDS011;2557;51.390;7.494;2023-03-14T05:48:08;6.63;;;2.23;;
5077;SDS011;2557;51.390;7.494;2023-03-14T05:50:34;4.47;;;2.13;;
5077;SDS011;2557;51.390;7.494;2023-03-14T05:53:00;4.03;;;1.93;;
5077;SDS011;2557;51.390;7.494;2023-03-14T05:55:26;2.50;;;1.90;;
5077;SDS011;2557;51.390;7.494;2023-03-14T05:57:52;5.33;;;3.27;;
5077;SDS011;2557;51.390;7.494;2023-03-14T06:00:18;7.30;;;2.10;;
5077;SDS011;2557;51.390;7.494;2023-03-14T06:02:44;3.27;;;1.70;;
5077;SDS011;2557;51.390;7.494;2023-03-14T06:05:11;1.90;;;1.70;;
5077;SDS011;2557;51.390;7.494;2023-03-14T06:07:37;4.07;;;1.70;;
5077;SDS011;2557;51.390;7.494;2023-03-14T06:10:03;2.77;;;1.67;;
5077;SDS011;2557;51.390;7.494;2023-03-14T06:12:29;2.57;;;1.50;;
5077;SDS011;2557;51.390;7.494;2023-03-14T06:14:55;5.27;;;2.13;;
5077;SDS011;2557;51.390;7.494;2023-03-14T06:17:21;2.33;;;1.50;;
5077;SDS011;2557;51.390;7.494;2023-03-14T06:19:47;2.87;;;2.03;;
5077;SDS011;2557;51.390;7.494;2023-03-14T06:22:13;3.63;;;1.93;;
5077;SDS011;2557;51.390;7.494;2023-03-14T06:24:39;4.40;;;2.93;;
5077;SDS011;2557;51.390;7.494;2023-03-14T06:27:05;1.70;;;1.60;;
5077;SDS011;2557;51.390;7.494;2023-03-14T06:29:31;1.80;;;1.70;;
5077;SDS011;2557;51.390;7.494;2023-03-14T06:31:57;1.63;;;1.40;;
5077;SDS011;2557;51.390;7.494;2023-03-14T06:34:23;2.40;;;1.50;;
5077;SDS011;2557;51.390;7.494;2023-03-14T06:36:49;2.90;;;1.60;;
5077;SDS011;2557;51.390;7.494;2023-03-14T06:39:15;1.30;;;1.20;;
5077;SDS011;2557;51.390;7.494;2023-03-14T06:41:41;1.60;;;1.50;;
5077;SDS011;2557;51.390;7.494;2023-03-14T06:44:07;1.40;;;1.30;;
5077;SDS011;2557;51.390;7.494;2023-03-14T06:46:33;1.60;;;1.30;;
5077;SDS011;2557;51.390;7.494;2023-03-14T06:48:59;1.37;;;1.27;;
5077;SDS011;2557;51.390;7.494;2023-03-14T06:51:25;2.60;;;1.30;;
5077;SDS011;2557;51.390;7.494;2023-03-14T06:53:51;2.60;;;1.67;;
5077;SDS011;2557;51.390;7.494;2023-03-14T06:56:17;2.67;;;1.30;;
5077;SDS011;2557;51.390;7.494;2023-03-14T06:58:43;1.40;;;1.30;;
5077;SDS011;2557;51.390;7.494;2023-03-14T07:01:26;1.57;;;1.33;;
5077;SDS011;2557;51.390;7.494;2023-03-14T07:03:53;1.93;;;1.70;;
5077;SDS011;2557;51.390;7.494;2023-03-14T07:06:19;2.13;;;1.30;;
5077;SDS011;2557;51.390;7.494;2023-03-14T07:08:45;2.57;;;1.30;;
5077;SDS011;2557;51.390;7.494;2023-03-14T07:11:11;1.73;;;1.30;;
5077;SDS011;2557;51.390;7.494;2023-03-14T07:13:38;1.60;;;1.50;;
5077;SDS011;2557;51.390;7.494;2023-03-14T07:16:04;2.43;;;1.33;;
5077;SDS011;2557;51.390;7.494;2023-03-14T07:18:30;4.57;;;1.27;;
5077;SDS011;2557;51.390;7.494;2023-03-14T07:20:56;2.03;;;1.20;;
5077;SDS011;2557;51.390;7.494;2023-03-14T07:23:22;2.13;;;1.40;;
5077;SDS011;2557;51.390;7.494;2023-03-14T07:25:48;1.60;;;1.40;;
5077;SDS011;2557;51.390;7.494;2023-03-14T07:28:15;1.53;;;1.43;;
5077;SDS011;2557;51.390;7.494;2023-03-14T07:30:41;1.87;;;1.47;;
5077;SDS011;2557;51.390;7.494;2023-03-14T07:33:07;1.70;;;1.60;;
5077;SDS011;2557;51.390;7.494;2023-03-14T07:35:33;2.33;;;1.40;;
5077;SDS011;2557;51.390;7.494;2023-03-14T07:37:59;1.57;;;1.40;;
5077;SDS011;2557;51.390;7.494;2023-03-14T07:40:25;1.80;;;1.70;;
5077;SDS011;2557;51.390;7.494;2023-03-14T07:42:51;1.50;;;1.40;;
5077;SDS011;2557;51.390;7.494;2023-03-14T07:45:20;1.20;;;1.10;;
5077;SDS011;2557;51.390;7.494;2023-03-14T07:47:46;2.63;;;1.40;;
5077;SDS011;2557;51.390;7.494;2023-03-14T07:50:12;1.33;;;1.23;;
5077;SDS011;2557;51.390;7.494;2023-03-14T07:52:38;2.10;;;1.23;;
5077;SDS011;2557;51.390;7.494;2023-03-14T07:55:04;1.53;;;1.43;;
5077;SDS011;2557;51.390;7.494;2023-03-14T07:57:30;1.70;;;1.60;;
5077;SDS011;2557;51.390;7.494;2023-03-14T07:59:56;1.63;;;1.50;;
5077;SDS011;2557;51.390;7.494;2023-03-14T08:02:22;1.73;;;1.43;;
5077;SDS011;2557;51.390;7.494;2023-03-14T08:04:49;1.47;;;1.30;;
5077;SDS011;2557;51.390;7.494;2023-03-14T08:07:15;2.10;;;1.90;;
5077;SDS011;2557;51.390;7.494;2023-03-14T08:09:41;1.50;;;1.40;;
5077;SDS011;2557;51.390;7.494;2023-03-14T08:12:07;1.77;;;1.67;;
5077;SDS011;2557;51.390;7.494;2023-03-14T08:14:33;4.00;;;2.60;;
5077;SDS011;2557;51.390;7.494;2023-03-14T08:16:59;2.70;;;1.70;;
5077;SDS011;2557;51.390;7.494;2023-03-14T08:19:25;5.63;;;1.80;;
5077;SDS011;2557;51.390;7.494;2023-03-14T08:21:51;2.30;;;1.50;;
5077;SDS011;2557;51.390;7.494;2023-03-14T08:24:17;2.87;;;1.90;;
5077;SDS011;2557;51.390;7.494;2023-03-14T08:26:43;2.83;;;2.20;;
5077;SDS011;2557;51.390;7.494;2023-03-14T08:29:09;2.20;;;2.00;;
5077;SDS011;2557;51.390;7.494;2023-03-14T08:31:37;2.13;;;2.03;;
5077;SDS011;2557;51.390;7.494;2023-03-14T08:34:03;2.20;;;2.00;;
5077;SDS011;2557;51.390;7.494;2023-03-14T08:36:31;3.13;;;2.20;;
5077;SDS011;2557;51.390;7.494;2023-03-14T08:38:57;2.73;;;2.50;;
5077;SDS011;2557;51.390;7.494;2023-03-14T08:41:23;2.50;;;2.27;;
5077;SDS011;2557;51.390;7.494;2023-03-14T08:43:49;2.10;;;2.00;;
5077;SDS011;2557;51.390;7.494;2023-03-14T08:46:15;2.17;;;2.07;;
5077;SDS011;2557;51.390;7.494;2023-03-14T08:48:41;2.50;;;2.30;;
5077;SDS011;2557;51.390;7.494;2023-03-14T08:51:11;4.73;;;2.00;;
5077;SDS011;2557;51.390;7.494;2023-03-14T08:53:37;2.20;;;2.00;;
5077;SDS011;2557;51.390;7.494;2023-03-14T08:56:04;2.70;;;1.83;;
5077;SDS011;2557;51.390;7.494;2023-03-14T08:58:31;2.00;;;1.83;;
5077;SDS011;2557;51.390;7.494;2023-03-14T09:00:57;2.80;;;1.93;;
5077;SDS011;2557;51.390;7.494;2023-03-14T09:03:23;2.43;;;2.23;;
5077;SDS011;2557;51.390;7.494;2023-03-14T09:05:50;3.93;;;2.40;;
5077;SDS011;2557;51.390;7.494;2023-03-14T09:08:16;2.10;;;2.00;;
5077;SDS011;2557;51.390;7.494;2023-03-14T09:10:42;2.87;;;2.67;;
5077;SDS011;2557;51.390;7.494;2023-03-14T09:13:08;2.93;;;2.73;;
5077;SDS011;2557;51.390;7.494;2023-03-14T09:15:33;1.97;;;1.87;;
5077;SDS011;2557;51.390;7.494;2023-03-14T09:18:00;2.10;;;2.00;;
5077;SDS011;2557;51.390;7.494;2023-03-14T09:20:26;2.80;;;2.43;;
5077;SDS011;2557;51.390;7.494;2023-03-14T09:22:52;2.40;;;2.20;;
5077;SDS011;2557;51.390;7.494;2023-03-14T09:25:18;2.57;;;2.37;;
5077;SDS011;2557;51.390;7.494;2023-03-14T09:27:44;3.00;;;2.30;;
5077;SDS011;2557;51.390;7.494;2023-03-14T09:30:10;3.90;;;2.53;;
5077;SDS011;2557;51.390;7.494;2023-03-14T09:32:36;2.57;;;2.37;;
5077;SDS011;2557;51.390;7.494;2023-03-14T09:35:03;5.43;;;4.00;;
5077;SDS011;2557;51.390;7.494;2023-03-14T09:37:29;4.20;;;3.80;;
5077;SDS011;2557;51.390;7.494;2023-03-14T09:39:55;2.93;;;2.73;;
5077;SDS011;2557;51.390;7.494;2023-03-14T09:42:21;2.60;;;2.50;;
5077;SDS011;2557;51.390;7.494;2023-03-14T09:45:01;2.43;;;2.33;;
5077;SDS011;2557;51.390;7.494;2023-03-14T09:47:30;2.23;;;2.13;;
5077;SDS011;2557;51.390;7.494;2023-03-14T09:49:56;2.80;;;2.10;;
5077;SDS011;2557;51.390;7.494;2023-03-14T09:52:27;1.60;;;1.50;;
5077;SDS011;2557;51.390;7.494;2023-03-14T09:54:54;7.87;;;2.80;;
5077;SDS011;2557;51.390;7.494;2023-03-14T09:57:25;1.70;;;1.60;;
5077;SDS011;2557;51.390;7.494;2023-03-14T09:59:53;2.07;;;1.50;;
5077;SDS011;2557;51.390;7.494;2023-03-14T10:02:22;2.17;;;1.80;;
5077;SDS011;2557;51.390;7.494;2023-03-14T10:04:49;3.47;;;1.43;;
5077;SDS011;2557;51.390;7.494;2023-03-14T10:07:17;1.43;;;1.30;;
5077;SDS011;2557;51.390;7.494;2023-03-14T10:09:45;1.40;;;1.30;;
5077;SDS011;2557;51.390;7.494;2023-03-14T10:12:11;1.40;;;1.30;;
5077;SDS011;2557;51.390;7.494;2023-03-14T10:14:38;1.53;;;1.30;;
5077;SDS011;2557;51.390;7.494;2023-03-14T10:17:11;1.70;;;1.60;;
5077;SDS011;2557;51.390;7.494;2023-03-14T10:19:38;1.97;;;1.83;;
5077;SDS011;2557;51.390;7.494;2023-03-14T10:22:15;1.80;;;1.70;;
5077;SDS011;2557;51.390;7.494;2023-03-14T10:24:49;2.93;;;1.70;;
5077;SDS011;2557;51.390;7.494;2023-03-14T10:27:18;1.40;;;1.30;;
5077;SDS011;2557;51.390;7.494;2023-03-14T10:29:52;1.70;;;1.60;;
5077;SDS011;2557;51.390;7.494;2023-03-14T10:32:19;2.03;;;1.83;;
5077;SDS011;2557;51.390;7.494;2023-03-14T10:34:45;1.80;;;1.70;;
5077;SDS011;2557;51.390;7.494;2023-03-14T10:37:28;1.57;;;1.47;;
5077;SDS011;2557;51.390;7.494;2023-03-14T10:39:55;1.60;;;1.50;;
5077;SDS011;2557;51.390;7.494;2023-03-14T10:42:30;1.57;;;1.47;;
5077;SDS011;2557;51.390;7.494;2023-03-14T10:44:59;1.60;;;1.50;;
5077;SDS011;2557;51.390;7.494;2023-03-14T10:47:26;1.73;;;1.63;;
5077;SDS011;2557;51.390;7.494;2023-03-14T10:49:53;3.23;;;1.87;;
5077;SDS011;2557;51.390;7.494;2023-03-14T10:52:27;1.50;;;1.40;;
5077;SDS011;2557;51.390;7.494;2023-03-14T10:54:58;1.83;;;1.73;;
5077;SDS011;2557;51.390;7.494;2023-03-14T10:57:25;1.77;;;1.67;;
5077;SDS011;2557;51.390;7.494;2023-03-14T10:59:51;2.10;;;1.90;;
5077;SDS011;2557;51.390;7.494;2023-03-14T11:02:40;2.27;;;1.70;;
5077;SDS011;2557;51.390;7.494;2023-03-14T11:05:11;2.10;;;2.00;;
5077;SDS011;2557;51.390;7.494;2023-03-14T11:07:43;1.80;;;1.70;;
5077;SDS011;2557;51.390;7.494;2023-03-14T11:16:14;2.83;;;2.20;;
5077;SDS011;2557;51.390;7.494;2023-03-14T11:20:58;3.50;;;3.13;;
5077;SDS011;2557;51.390;7.494;2023-03-14T11:26:00;1.50;;;1.40;;
5077;SDS011;2557;51.390;7.494;2023-03-14T11:30:54;4.40;;;2.10;;
5077;SDS011;2557;51.390;7.494;2023-03-14T11:33:45;2.67;;;2.03;;
5077;SDS011;2557;51.390;7.494;2023-03-14T11:36:18;2.13;;;1.40;;
5077;SDS011;2557;51.390;7.494;2023-03-14T11:38:46;3.37;;;1.83;;
5077;SDS011;2557;51.390;7.494;2023-03-14T11:41:23;5.67;;;1.80;;
5077;SDS011;2557;51.390;7.494;2023-03-14T11:43:54;2.23;;;2.13;;
5077;SDS011;2557;51.390;7.494;2023-03-14T11:46:23;2.90;;;2.40;;
5077;SDS011;2557;51.390;7.494;2023-03-14T11:56:17;1.73;;;1.63;;
5077;SDS011;2557;51.390;7.494;2023-03-14T11:58:48;2.33;;;2.03;;
5077;SDS011;2557;51.390;7.494;2023-03-14T12:01:15;1.73;;;1.50;;
5077;SDS011;2557;51.390;7.494;2023-03-14T12:03:46;1.77;;;1.67;;
5077;SDS011;2557;51.390;7.494;2023-03-14T12:08:59;2.50;;;1.50;;
5077;SDS011;2557;51.390;7.494;2023-03-14T12:11:33;1.70;;;1.60;;
5077;SDS011;2557;51.390;7.494;2023-03-14T12:14:01;2.30;;;1.70;;
5077;SDS011;2557;51.390;7.494;2023-03-14T12:16:37;1.43;;;1.23;;
5077;SDS011;2557;51.390;7.494;2023-03-14T12:24:24;1.83;;;1.60;;
5077;SDS011;2557;51.390;7.494;2023-03-14T12:26:55;2.00;;;1.53;;
5077;SDS011;2557;51.390;7.494;2023-03-14T12:29:21;1.57;;;1.47;;
5077;SDS011;2557;51.390;7.494;2023-03-14T12:31:49;1.50;;;1.40;;
5077;SDS011;2557;51.390;7.494;2023-03-14T12:39:20;5.27;;;1.77;;
5077;SDS011;2557;51.390;7.494;2023-03-14T12:41:51;3.00;;;1.40;;
5077;SDS011;2557;51.390;7.494;2023-03-14T12:46:59;4.53;;;1.67;;
5077;SDS011;2557;51.390;7.494;2023-03-14T12:49:29;1.80;;;1.70;;
5077;SDS011;2557;51.390;7.494;2023-03-14T12:51:59;1.90;;;1.70;;
5077;SDS011;2557;51.390;7.494;2023-03-14T12:54:27;5.20;;;1.80;;
5077;SDS011;2557;51.390;7.494;2023-03-14T12:59:34;1.70;;;1.60;;
5077;SDS011;2557;51.390;7.494;2023-03-14T13:04:33;3.97;;;2.07;;
5077;SDS011;2557;51.390;7.494;2023-03-14T13:07:00;4.67;;;1.70;;
5077;SDS011;2557;51.390;7.494;2023-03-14T13:12:02;7.10;;;1.80;;
5077;SDS011;2557;51.390;7.494;2023-03-14T13:14:29;2.70;;;1.70;;
5077;SDS011;2557;51.390;7.494;2023-03-14T13:16:58;2.33;;;1.70;;
5077;SDS011;2557;51.390;7.494;2023-03-14T13:19:28;4.27;;;1.97;;
5077;SDS011;2557;51.390;7.494;2023-03-14T13:22:02;2.50;;;1.70;;
5077;SDS011;2557;51.390;7.494;2023-03-14T13:24:28;4.50;;;2.30;;
5077;SDS011;2557;51.390;7.494;2023-03-14T13:26:56;5.50;;;1.67;;
5077;SDS011;2557;51.390;7.494;2023-03-14T13:29:29;5.97;;;1.80;;
5077;SDS011;2557;51.390;7.494;2023-03-14T13:31:59;4.87;;;3.43;;
5077;SDS011;2557;51.390;7.494;2023-03-14T13:34:26;3.63;;;1.90;;
5077;SDS011;2557;51.390;7.494;2023-03-14T13:36:54;5.03;;;2.80;;
5077;SDS011;2557;51.390;7.494;2023-03-14T13:39:21;5.10;;;2.20;;
5077;SDS011;2557;51.390;7.494;2023-03-14T13:41:49;6.17;;;2.20;;
5077;SDS011;2557;51.390;7.494;2023-03-14T13:44:17;6.70;;;2.33;;
5077;SDS011;2557;51.390;7.494;2023-03-14T13:46:44;13.53;;;3.20;;
5077;SDS011;2557;51.390;7.494;2023-03-14T13:49:11;10.93;;;2.77;;
5077;SDS011;2557;51.390;7.494;2023-03-14T13:51:39;4.80;;;3.30;;
5077;SDS011;2557;51.390;7.494;2023-03-14T13:54:13;7.23;;;2.70;;
5077;SDS011;2557;51.390;7.494;2023-03-14T13:56:39;12.80;;;5.20;;
5077;SDS011;2557;51.390;7.494;2023-03-14T13:59:25;9.20;;;2.60;;
5077;SDS011;2557;51.390;7.494;2023-03-14T14:01:52;8.20;;;3.00;;
5077;SDS011;2557;51.390;7.494;2023-03-14T14:04:19;5.30;;;2.63;;
5077;SDS011;2557;51.390;7.494;2023-03-14T14:06:54;20.80;;;2.80;;
5077;SDS011;2557;51.390;7.494;2023-03-14T14:09:23;18.60;;;3.87;;
5077;SDS011;2557;51.390;7.494;2023-03-14T14:14:20;10.93;;;3.17;;
5077;SDS011;2557;51.390;7.494;2023-03-14T14:16:47;14.27;;;3.73;;
5077;SDS011;2557;51.390;7.494;2023-03-14T14:19:13;10.97;;;3.70;;
5077;SDS011;2557;51.390;7.494;2023-03-14T14:21:40;14.47;;;4.90;;
5077;SDS011;2557;51.390;7.494;2023-03-14T14:24:07;10.20;;;3.73;;
5077;SDS011;2557;51.390;7.494;2023-03-14T14:26:33;10.23;;;4.07;;
5077;SDS011;2557;51.390;7.494;2023-03-14T14:29:03;16.10;;;4.63;;
5077;SDS011;2557;51.390;7.494;2023-03-14T14:31:29;16.77;;;4.37;;
5077;SDS011;2557;51.390;7.494;2023-03-14T14:33:59;10.73;;;3.50;;
5077;SDS011;2557;51.390;7.494;2023-03-14T14:36:38;8.93;;;3.63;;
5077;SDS011;2557;51.390;7.494;2023-03-14T14:41:34;18.17;;;4.97;;
5077;SDS011;2557;51.390;7.494;2023-03-14T14:44:01;9.87;;;4.27;;
5077;SDS011;2557;51.390;7.494;2023-03-14T14:46:29;13.40;;;3.50;;
5077;SDS011;2557;51.390;7.494;2023-03-14T14:49:02;16.03;;;4.20;;
5077;SDS011;2557;51.390;7.494;2023-03-14T14:51:33;14.37;;;4.27;;
5077;SDS011;2557;51.390;7.494;2023-03-14T14:54:19;9.37;;;2.83;;
5077;SDS011;2557;51.390;7.494;2023-03-14T14:56:47;10.70;;;3.73;;
5077;SDS011;2557;51.390;7.494;2023-03-14T14:59:31;11.67;;;4.57;;
5077;SDS011;2557;51.390;7.494;2023-03-14T15:02:00;9.90;;;5.40;;
5077;SDS011;2557;51.390;7.494;2023-03-14T15:04:26;9.83;;;3.17;;
5077;SDS011;2557;51.390;7.494;2023-03-14T15:06:52;13.63;;;3.37;;
5077;SDS011;2557;51.390;7.494;2023-03-14T15:09:19;14.87;;;4.53;;
5077;SDS011;2557;51.390;7.494;2023-03-14T15:11:45;10.30;;;2.80;;
5077;SDS011;2557;51.390;7.494;2023-03-14T15:14:11;6.63;;;2.90;;
5077;SDS011;2557;51.390;7.494;2023-03-14T15:16:38;16.50;;;4.40;;
5077;SDS011;2557;51.390;7.494;2023-03-14T15:19:11;17.67;;;3.57;;
5077;SDS011;2557;51.390;7.494;2023-03-14T15:21:38;8.90;;;3.60;;
5077;SDS011;2557;51.390;7.494;2023-03-14T15:24:04;9.67;;;3.10;;
5077;SDS011;2557;51.390;7.494;2023-03-14T15:26:30;8.10;;;2.73;;
5077;SDS011;2557;51.390;7.494;2023-03-14T15:28:56;9.77;;;2.83;;
5077;SDS011;2557;51.390;7.494;2023-03-14T15:31:22;6.77;;;2.47;;
5077;SDS011;2557;51.390;7.494;2023-03-14T15:33:48;10.43;;;2.87;;
5077;SDS011;2557;51.390;7.494;2023-03-14T15:36:28;7.60;;;3.30;;
5077;SDS011;2557;51.390;7.494;2023-03-14T15:38:55;7.73;;;3.27;;
5077;SDS011;2557;51.390;7.494;2023-03-14T15:41:22;15.07;;;3.20;;
5077;SDS011;2557;51.390;7.494;2023-03-14T15:43:48;8.33;;;3.70;;
5077;SDS011;2557;51.390;7.494;2023-03-14T15:46:14;7.47;;;2.73;;
5077;SDS011;2557;51.390;7.494;2023-03-14T15:48:42;12.23;;;2.90;;
5077;SDS011;2557;51.390;7.494;2023-03-14T15:51:08;13.50;;;3.63;;
5077;SDS011;2557;51.390;7.494;2023-03-14T15:53:34;8.13;;;3.23;;
5077;SDS011;2557;51.390;7.494;2023-03-14T15:56:04;11.27;;;3.40;;
5077;SDS011;2557;51.390;7.494;2023-03-14T15:58:30;13.40;;;3.57;;
5077;SDS011;2557;51.390;7.494;2023-03-14T16:00:59;10.00;;;2.30;;
5077;SDS011;2557;51.390;7.494;2023-03-14T16:03:25;6.47;;;2.40;;
5077;SDS011;2557;51.390;7.494;2023-03-14T16:05:51;4.73;;;2.63;;
5077;SDS011;2557;51.390;7.494;2023-03-14T16:08:17;7.53;;;2.50;;
5077;SDS011;2557;51.390;7.494;2023-03-14T16:10:43;7.00;;;2.43;;
5077;SDS011;2557;51.390;7.494;2023-03-14T16:13:10;9.33;;;2.40;;